createdAt,value
2019-05-09T00:02:15.489Z,62.92
2019-05-09T00:04:45.088Z,63.47
2019-05-09T00:07:14.696Z,63.82
2019-05-09T00:09:44.285Z,64.44
2019-05-09T00:12:14.321Z,64.91
2019-05-09T00:14:44.063Z,64.91
2019-05-09T00:17:14.229Z,64.91
2019-05-09T00:19:44.023Z,64.67
2019-05-09T00:22:13.923Z,64.50
2019-05-09T00:24:44.723Z,64.24
2019-05-09T00:27:14.466Z,63.81
2019-05-09T00:29:48.800Z,63.61
2019-05-09T00:32:26.265Z,63.50
2019-05-09T00:34:57.496Z,63.47
2019-05-09T00:37:44.843Z,63.53
2019-05-09T00:40:14.519Z,63.48
2019-05-09T00:42:44.226Z,63.70
2019-05-09T00:45:18.226Z,63.60
2019-05-09T00:47:47.817Z,63.69
2019-05-09T00:50:17.427Z,63.84
2019-05-09T00:52:47.013Z,64.10
2019-05-09T00:55:16.625Z,63.99
2019-05-09T00:57:46.221Z,63.83
2019-05-09T01:00:17.905Z,64.00
2019-05-09T01:02:47.508Z,63.98
2019-05-09T01:05:17.162Z,63.86
2019-05-09T01:07:46.730Z,64.15
2019-05-09T01:10:16.642Z,64.05
2019-05-09T01:12:46.242Z,63.98
2019-05-09T01:15:16.557Z,64.17
2019-05-09T01:17:46.158Z,64.22
2019-05-09T01:20:16.586Z,63.91
2019-05-09T01:22:46.202Z,64.18
2019-05-09T01:25:16.043Z,64.41
2019-05-09T01:27:45.642Z,64.45
2019-05-09T01:30:15.656Z,64.60
2019-05-09T01:33:05.035Z,64.89
2019-05-09T01:35:34.654Z,64.79
2019-05-09T01:38:04.876Z,64.68
2019-05-09T01:40:34.859Z,64.60
2019-05-09T01:43:04.663Z,64.57
2019-05-09T01:45:34.391Z,64.60
2019-05-09T01:48:04.073Z,64.81
2019-05-09T01:50:34.114Z,65.00
2019-05-09T01:53:04.096Z,65.02
2019-05-09T01:55:53.840Z,65.16
2019-05-09T01:58:23.305Z,65.21
2019-05-09T02:00:53.998Z,65.37
2019-05-09T02:03:23.857Z,65.60
2019-05-09T02:05:53.460Z,65.73
2019-05-09T02:08:23.740Z,65.55
2019-05-09T02:10:54.311Z,65.35
2019-05-09T02:13:23.896Z,65.44
2019-05-09T02:15:59.101Z,65.44
2019-05-09T02:18:33.381Z,65.35
2019-05-09T02:21:04.029Z,65.39
2019-05-09T02:23:34.022Z,65.15
2019-05-09T02:26:04.074Z,65.02
2019-05-09T02:28:34.262Z,64.96
2019-05-09T02:31:05.290Z,64.63
2019-05-09T02:33:35.178Z,64.46
2019-05-09T02:36:04.789Z,64.52
2019-05-09T02:38:34.427Z,64.33
2019-05-09T02:41:03.992Z,64.14
2019-05-09T02:43:33.581Z,64.36
2019-05-09T02:46:05.108Z,64.05
2019-05-09T02:48:34.678Z,64.00
2019-05-09T02:51:04.281Z,63.59
2019-05-09T02:53:33.868Z,63.62
2019-05-09T02:56:03.480Z,63.31
2019-05-09T02:58:34.714Z,63.40
2019-05-09T03:01:09.344Z,63.82
2019-05-09T03:03:40.500Z,63.83
2019-05-09T03:06:10.115Z,63.82
2019-05-09T03:08:39.718Z,63.87
2019-05-09T03:11:10.078Z,63.65
2019-05-09T03:13:39.834Z,63.75
2019-05-09T03:16:11.062Z,63.45
2019-05-09T03:18:40.830Z,63.49
2019-05-09T03:21:12.082Z,63.34
2019-05-09T03:23:41.678Z,63.22
2019-05-09T03:26:12.925Z,63.16
2019-05-09T03:28:42.284Z,63.12
2019-05-09T03:31:13.528Z,63.01
2019-05-09T03:33:44.094Z,62.88
2019-05-09T03:36:14.458Z,62.80
2019-05-09T03:38:44.125Z,62.53
2019-05-09T03:41:14.311Z,62.50
2019-05-09T03:43:43.922Z,62.54
2019-05-09T03:46:13.308Z,62.49
2019-05-09T03:48:48.602Z,62.42
2019-05-09T03:51:18.452Z,62.44
2019-05-09T03:53:48.488Z,62.25
2019-05-09T03:56:19.821Z,62.35
2019-05-09T03:58:49.407Z,62.40
2019-05-09T04:01:19.005Z,62.31
2019-05-09T04:03:48.619Z,62.22
2019-05-09T04:06:18.595Z,62.03
2019-05-09T04:08:48.355Z,62.32
2019-05-09T04:11:18.611Z,61.99
2019-05-09T04:13:49.898Z,61.76
2019-05-09T04:16:19.490Z,61.83
2019-05-09T04:18:50.538Z,61.08
2019-05-09T04:21:20.159Z,60.91
2019-05-09T04:23:51.015Z,60.91
2019-05-09T04:26:24.683Z,60.58
2019-05-09T04:28:54.327Z,60.45
2019-05-09T04:31:23.984Z,60.25
2019-05-09T04:33:53.600Z,60.24
2019-05-09T04:36:24.843Z,60.31
2019-05-09T04:38:54.448Z,60.17
2019-05-09T04:41:25.396Z,59.86
2019-05-09T04:43:57.388Z,59.85
2019-05-09T04:46:27.736Z,59.78
2019-05-09T04:49:00.973Z,58.62
2019-05-09T04:51:28.740Z,58.18
2019-05-09T04:53:58.487Z,57.66
2019-05-09T04:56:38.228Z,57.27
2019-05-09T04:59:08.083Z,56.73
2019-05-09T05:01:47.762Z,56.33
2019-05-09T05:04:19.152Z,55.98
2019-05-09T05:06:48.731Z,55.85
2019-05-09T05:09:20.977Z,55.45
2019-05-09T05:11:49.665Z,55.43
2019-05-09T05:14:22.118Z,55.42
2019-05-09T05:16:55.444Z,55.24
2019-05-09T05:19:28.476Z,55.13
2019-05-09T05:21:58.841Z,54.90
2019-05-09T05:24:30.078Z,55.05
2019-05-09T05:26:59.673Z,55.15
2019-05-09T05:29:29.292Z,54.94
2019-05-09T05:32:00.516Z,55.04
2019-05-09T05:34:37.841Z,54.94
2019-05-09T05:37:07.659Z,55.39
2019-05-09T05:39:37.635Z,54.69
2019-05-09T05:42:08.327Z,54.11
2019-05-09T05:44:38.679Z,54.10
2019-05-09T05:47:08.118Z,53.62
2019-05-09T05:49:38.446Z,53.06
2019-05-09T05:52:08.365Z,52.31
2019-05-09T05:54:39.814Z,51.98
2019-05-09T05:57:09.431Z,51.79
2019-05-09T05:59:40.921Z,51.63
2019-05-09T06:02:10.362Z,51.58
2019-05-09T06:04:39.955Z,51.59
2019-05-09T06:07:09.541Z,51.36
2019-05-09T06:09:39.149Z,51.30
2019-05-09T06:12:08.750Z,51.33
2019-05-09T06:14:38.357Z,50.84
2019-05-09T06:17:08.302Z,50.91
2019-05-09T06:19:38.262Z,50.93
2019-05-09T06:22:08.360Z,50.89
2019-05-09T06:24:38.921Z,50.65
2019-05-09T06:27:10.402Z,51.14
2019-05-09T06:29:42.381Z,51.51
2019-05-09T06:32:11.994Z,51.88
2019-05-09T06:34:42.274Z,52.00
2019-05-09T06:37:12.077Z,52.33
2019-05-09T06:39:42.718Z,52.10
2019-05-09T06:42:12.478Z,52.17
2019-05-09T06:44:42.789Z,51.92
2019-05-09T06:47:14.039Z,51.42
2019-05-09T06:49:48.225Z,50.51
2019-05-09T06:52:18.280Z,50.58
2019-05-09T06:54:48.585Z,49.29
2019-05-09T06:57:18.766Z,49.44
2019-05-09T06:59:48.920Z,47.94
2019-05-09T07:02:30.560Z,46.92
2019-05-09T07:05:01.810Z,46.53
2019-05-09T07:07:33.051Z,46.69
2019-05-09T07:10:04.472Z,46.56
2019-05-09T07:12:34.149Z,45.83
2019-05-09T07:15:04.008Z,45.75
2019-05-09T07:17:33.622Z,45.67
2019-05-09T07:20:03.190Z,45.38
2019-05-09T07:22:39.214Z,45.15
2019-05-09T07:25:18.439Z,45.29
2019-05-09T07:27:52.324Z,44.81
2019-05-09T07:30:40.065Z,45.64
2019-05-09T07:33:11.780Z,45.64
2019-05-09T07:35:41.667Z,45.69
2019-05-09T07:38:14.830Z,45.48
2019-05-09T07:40:47.597Z,44.95
2019-05-09T07:43:18.030Z,43.90
2019-05-09T07:46:08.777Z,43.77
2019-05-09T07:48:41.074Z,43.31
2019-05-09T07:51:11.099Z,42.50
2019-05-09T07:53:45.222Z,42.00
2019-05-09T07:56:15.506Z,41.03
2019-05-09T07:58:47.838Z,40.15
2019-05-09T08:01:19.043Z,39.40
2019-05-09T08:03:49.337Z,39.38
2019-05-09T08:06:20.443Z,39.14
2019-05-09T08:08:50.399Z,39.76
2019-05-09T08:11:20.728Z,39.09
2019-05-09T08:13:50.670Z,37.61
2019-05-09T08:16:20.652Z,36.93
2019-05-09T08:18:50.943Z,36.57
2019-05-09T08:21:20.919Z,35.20
2019-05-09T08:23:51.244Z,34.81
2019-05-09T08:26:23.496Z,35.51
2019-05-09T08:28:58.403Z,35.77
2019-05-09T08:31:33.661Z,35.66
2019-05-09T08:34:08.231Z,34.37
2019-05-09T08:36:38.455Z,32.48
2019-05-09T08:39:11.976Z,32.42
2019-05-09T08:41:48.327Z,31.64
2019-05-09T08:44:30.461Z,30.13
2019-05-09T08:47:02.771Z,28.00
2019-05-09T08:49:54.035Z,28.70
2019-05-09T08:52:28.789Z,28.14
2019-05-09T08:55:04.093Z,26.80
2019-05-09T08:57:40.542Z,27.34
2019-05-09T09:00:19.096Z,26.40
2019-05-09T09:03:03.709Z,27.17
2019-05-09T09:05:43.800Z,28.18
2019-05-09T09:08:20.330Z,29.99
2019-05-09T09:10:57.778Z,30.81
2019-05-09T09:13:31.364Z,31.37
2019-05-09T09:16:18.044Z,29.70
2019-05-09T09:18:40.299Z,29.71
2019-05-09T09:21:18.146Z,30.25
2019-05-09T09:23:53.202Z,27.76
2019-05-09T09:26:29.318Z,24.75
2019-05-09T09:29:04.009Z,23.37
2019-05-09T09:31:38.598Z,21.82
2019-05-09T09:34:19.071Z,21.94
2019-05-09T09:37:03.014Z,23.41
2019-05-09T09:39:34.836Z,24.78
2019-05-09T09:42:09.222Z,24.87
2019-05-09T09:44:49.604Z,22.39
2019-05-09T09:47:28.390Z,20.72
2019-05-09T09:50:08.734Z,19.16
2019-05-09T09:52:41.987Z,19.01
2019-05-09T09:55:22.278Z,18.20
2019-05-09T09:58:00.114Z,17.99
2019-05-09T10:01:11.516Z,16.97
2019-05-09T10:03:47.401Z,16.02
2019-05-09T10:06:28.395Z,16.19
2019-05-09T10:09:09.172Z,16.15
2019-05-09T10:11:39.538Z,16.18
2019-05-09T10:14:18.647Z,16.47
2019-05-09T10:17:03.674Z,16.40
2019-05-09T10:19:39.106Z,16.33
2019-05-09T10:22:24.357Z,15.79
2019-05-09T10:24:59.705Z,14.79
2019-05-09T10:27:34.941Z,15.02
2019-05-09T10:30:11.844Z,14.24
2019-05-09T10:32:48.703Z,14.47
2019-05-09T10:35:32.499Z,15.27
2019-05-09T10:38:08.774Z,14.18
2019-05-09T10:40:43.905Z,13.97
2019-05-09T10:43:37.984Z,13.56
2019-05-09T10:46:46.659Z,14.15
2019-05-09T10:49:09.929Z,13.56
2019-05-09T10:51:49.152Z,12.49
2019-05-09T10:54:23.465Z,12.55
2019-05-09T10:56:58.880Z,16.14
2019-05-09T10:59:32.182Z,18.41
2019-05-09T11:02:09.505Z,15.39
2019-05-09T11:04:46.286Z,13.63
2019-05-09T11:07:23.365Z,11.99
2019-05-09T11:10:24.078Z,10.57
2019-05-09T11:12:43.320Z,12.19
2019-05-09T11:15:20.433Z,13.80
2019-05-09T11:17:54.471Z,15.71
2019-05-09T11:20:30.408Z,15.38
2019-05-09T11:23:04.276Z,16.27
2019-05-09T11:25:39.138Z,15.59
2019-05-09T11:28:25.332Z,16.74
2019-05-09T11:31:02.968Z,15.67
2019-05-09T11:33:38.609Z,16.70
2019-05-09T11:36:10.416Z,13.25
2019-05-09T11:38:51.078Z,11.64
2019-05-09T11:41:23.915Z,9.70
2019-05-09T11:43:59.470Z,8.85
2019-05-09T11:46:34.024Z,8.30
2019-05-09T11:49:08.302Z,7.83
2019-05-09T11:51:42.350Z,8.01
2019-05-09T11:54:18.993Z,11.85
2019-05-09T11:56:50.966Z,16.30
2019-05-09T11:59:27.881Z,18.72
2019-05-09T12:02:03.426Z,18.59
2019-05-09T12:04:42.102Z,16.26
2019-05-09T12:07:17.866Z,13.56
2019-05-09T12:09:53.839Z,16.08
2019-05-09T12:12:28.269Z,15.90
2019-05-09T12:15:01.830Z,12.07
2019-05-09T12:17:50.937Z,10.09
2019-05-09T12:20:13.531Z,9.51
2019-05-09T12:22:50.320Z,9.03
2019-05-09T12:25:28.064Z,9.30
2019-05-09T12:28:01.222Z,9.52
2019-05-09T12:30:38.055Z,9.16
2019-05-09T12:33:11.220Z,8.37
2019-05-09T12:35:47.775Z,8.53
2019-05-09T12:38:29.563Z,8.96
2019-05-09T12:41:00.731Z,8.64
2019-05-09T12:43:30.285Z,9.91
2019-05-09T12:46:00.569Z,10.95
2019-05-09T12:48:37.058Z,10.46
2019-05-09T12:51:13.599Z,9.07
2019-05-09T12:53:52.009Z,11.74
2019-05-09T12:56:32.727Z,15.70
2019-05-09T12:59:08.815Z,14.50
2019-05-09T13:01:49.043Z,11.70
2019-05-09T13:04:22.746Z,12.55
2019-05-09T13:06:58.881Z,15.56
2019-05-09T13:09:39.522Z,18.62
2019-05-09T13:12:23.986Z,17.82
2019-05-09T13:14:53.944Z,14.57
2019-05-09T13:17:31.326Z,10.62
2019-05-09T13:20:09.379Z,9.27
2019-05-09T13:25:50.230Z,8.38
2019-05-09T13:28:22.535Z,9.56
2019-05-09T13:31:10.888Z,11.72
2019-05-09T13:33:42.627Z,13.58
2019-05-09T13:36:23.426Z,14.83
2019-05-09T13:39:08.306Z,15.84
2019-05-09T13:41:44.524Z,16.26
2019-05-09T13:44:23.555Z,17.48
2019-05-09T13:47:12.293Z,16.78
2019-05-09T13:49:50.727Z,13.46
2019-05-09T13:52:28.367Z,11.22
2019-05-09T13:55:08.830Z,9.61
2019-05-09T13:57:48.536Z,8.40
2019-05-09T14:00:22.218Z,8.23
2019-05-09T14:02:57.606Z,10.57
2019-05-09T14:05:34.819Z,10.89
2019-05-09T14:08:11.730Z,9.22
2019-05-09T14:10:48.333Z,8.26
2019-05-09T14:13:23.542Z,7.95
2019-05-09T14:16:15.743Z,8.78
2019-05-09T14:18:48.549Z,12.12
2019-05-09T14:21:24.620Z,13.44
2019-05-09T14:24:11.284Z,15.60
2019-05-09T14:26:38.093Z,17.40
2019-05-09T14:29:13.238Z,17.71
2019-05-09T14:31:49.955Z,16.30
2019-05-09T14:34:19.975Z,17.59
2019-05-09T14:36:58.448Z,19.46
2019-05-09T14:39:27.710Z,21.20
2019-05-09T14:41:57.911Z,22.68
2019-05-09T14:44:27.860Z,23.36
2019-05-09T14:46:58.392Z,24.03
2019-05-09T14:49:40.523Z,24.15
2019-05-09T14:52:14.238Z,24.28
2019-05-09T14:54:44.047Z,24.42
2019-05-09T14:57:19.976Z,25.28
2019-05-09T14:59:55.579Z,25.69
2019-05-09T15:02:27.000Z,25.60
2019-05-09T15:04:58.680Z,25.87
2019-05-09T15:07:42.726Z,26.05
2019-05-09T15:10:14.515Z,26.58
2019-05-09T15:12:50.063Z,26.95
2019-05-09T15:15:32.627Z,27.18
2019-05-09T15:18:10.023Z,27.15
2019-05-09T15:20:43.895Z,27.03
2019-05-09T15:23:19.719Z,26.76
2019-05-09T15:25:54.053Z,26.92
2019-05-09T15:28:28.952Z,27.17
2019-05-09T15:31:05.384Z,27.43
2019-05-09T15:33:58.004Z,27.92
2019-05-09T15:36:30.028Z,27.90
2019-05-09T15:39:15.496Z,28.25
2019-05-09T15:41:50.969Z,28.41
2019-05-09T15:44:26.553Z,28.45
2019-05-09T15:47:11.835Z,28.20
2019-05-09T15:49:42.578Z,28.49
2019-05-09T15:52:14.693Z,28.52
2019-05-09T15:54:48.662Z,28.48
2019-05-09T15:57:21.082Z,28.58
2019-05-09T15:59:58.712Z,28.48
2019-05-09T16:02:33.965Z,28.21
2019-05-09T16:05:12.301Z,27.66
2019-05-09T16:07:50.425Z,27.68
2019-05-09T16:10:30.248Z,28.56
2019-05-09T16:13:04.445Z,28.72
2019-05-09T16:15:42.511Z,29.51
2019-05-09T16:18:19.009Z,29.78
2019-05-09T16:20:51.258Z,29.92
2019-05-09T16:23:21.986Z,29.62
2019-05-09T16:26:01.751Z,29.02
2019-05-09T16:28:42.893Z,29.32
2019-05-09T16:31:22.555Z,29.55
2019-05-09T16:33:59.741Z,30.22
2019-05-09T16:36:35.796Z,32.23
2019-05-09T16:39:07.448Z,33.92
2019-05-09T16:41:39.193Z,35.09
2019-05-09T16:44:13.428Z,35.68
2019-05-09T16:46:43.859Z,36.00
2019-05-09T16:49:19.927Z,36.43
2019-05-09T16:51:50.220Z,36.76
2019-05-09T16:54:28.326Z,37.07
2019-05-09T16:57:04.082Z,37.36
2019-05-09T16:59:33.860Z,37.27
2019-05-09T17:02:18.853Z,37.41
2019-05-09T17:04:50.529Z,37.49
2019-05-09T17:07:20.320Z,37.64
2019-05-09T17:09:57.649Z,37.86
2019-05-09T17:12:26.467Z,38.12
2019-05-09T17:15:02.227Z,38.15
2019-05-09T17:17:38.559Z,38.50
2019-05-09T17:20:19.314Z,38.45
2019-05-09T17:23:11.611Z,38.50
2019-05-09T17:25:44.041Z,38.33
2019-05-09T17:28:21.042Z,38.50
2019-05-09T17:30:51.026Z,38.41
2019-05-09T17:33:25.225Z,38.40
2019-05-09T17:36:02.474Z,38.12
2019-05-09T17:38:32.344Z,38.29
2019-05-09T17:41:01.940Z,38.08
2019-05-09T17:43:31.616Z,38.43
2019-05-09T17:46:01.213Z,38.76
2019-05-09T17:48:30.826Z,38.80
2019-05-09T17:51:00.434Z,38.77
2019-05-09T17:53:33.264Z,38.83
2019-05-09T17:56:01.356Z,39.03
2019-05-09T17:58:38.068Z,39.51
2019-05-09T18:01:08.112Z,39.74
2019-05-09T18:03:38.494Z,40.06
2019-05-09T18:06:08.455Z,40.28
2019-05-09T18:08:38.089Z,40.45
2019-05-09T18:11:09.142Z,40.53
2019-05-09T18:13:39.279Z,40.62
2019-05-09T18:16:09.769Z,40.62
2019-05-09T18:18:40.271Z,40.89
2019-05-09T18:21:12.498Z,41.26
2019-05-09T18:23:47.413Z,41.74
2019-05-09T18:26:18.564Z,42.13
2019-05-09T18:28:48.096Z,42.45
2019-05-09T18:31:17.821Z,42.68
2019-05-09T18:33:51.779Z,43.06
2019-05-09T18:36:21.649Z,43.41
2019-05-09T18:38:51.550Z,43.50
2019-05-09T18:41:21.234Z,43.81
2019-05-09T18:43:50.834Z,44.12
2019-05-09T18:46:21.680Z,44.22
2019-05-09T18:48:51.320Z,44.65
2019-05-09T18:51:28.198Z,44.94
2019-05-09T18:53:57.121Z,44.95
2019-05-09T18:56:30.151Z,45.10
2019-05-09T18:58:59.907Z,45.36
2019-05-09T19:01:29.537Z,45.51
2019-05-09T19:03:59.139Z,45.78
2019-05-09T19:06:28.735Z,45.86
2019-05-09T19:08:58.324Z,46.20
2019-05-09T19:11:27.970Z,46.26
2019-05-09T19:13:58.999Z,46.25
2019-05-09T19:16:30.382Z,46.36
2019-05-09T19:19:13.591Z,46.60
2019-05-09T19:21:44.838Z,46.86
2019-05-09T19:24:14.433Z,46.90
2019-05-09T19:26:44.055Z,46.85
2019-05-09T19:29:13.653Z,46.86
2019-05-09T19:31:43.270Z,46.89
2019-05-09T19:34:12.906Z,46.97
2019-05-09T19:36:42.545Z,46.87
2019-05-09T19:39:12.685Z,46.94
2019-05-09T19:41:42.302Z,46.81
2019-05-09T19:44:11.903Z,46.75
2019-05-09T19:46:41.526Z,46.69
2019-05-09T19:49:11.133Z,46.62
2019-05-09T19:51:40.750Z,46.93
2019-05-09T19:54:10.365Z,47.17
2019-05-09T19:56:39.954Z,47.51
2019-05-09T19:59:09.554Z,47.61
2019-05-09T20:01:39.172Z,47.61
2019-05-09T20:04:08.895Z,47.75
2019-05-09T20:06:38.552Z,47.93
2019-05-09T20:09:10.370Z,48.20
2019-05-09T20:12:00.173Z,48.54
2019-05-09T20:14:31.454Z,48.68
2019-05-09T20:17:01.063Z,48.67
2019-05-09T20:19:30.726Z,48.67
2019-05-09T20:22:00.457Z,48.79
2019-05-09T20:24:30.045Z,48.93
2019-05-09T20:26:59.666Z,49.29
2019-05-09T20:29:30.537Z,49.36
2019-05-09T20:32:00.425Z,49.49
2019-05-09T20:34:30.091Z,49.59
2019-05-09T20:36:59.713Z,49.84
2019-05-09T20:39:31.077Z,49.71
2019-05-09T20:42:01.219Z,49.48
2019-05-09T20:44:30.959Z,49.30
2019-05-09T20:47:00.851Z,49.54
2019-05-09T20:49:30.606Z,49.54
2019-05-09T20:52:00.401Z,49.65
2019-05-09T20:54:30.221Z,49.92
2019-05-09T20:56:59.999Z,50.02
2019-05-09T20:59:29.800Z,50.16
2019-05-09T21:01:59.625Z,50.17
2019-05-09T21:04:29.429Z,50.20
2019-05-09T21:06:59.223Z,50.24
2019-05-09T21:09:29.039Z,50.26
2019-05-09T21:11:58.823Z,50.21
2019-05-09T21:14:28.606Z,50.60
2019-05-09T21:16:58.389Z,51.19
2019-05-09T21:19:28.176Z,51.51
2019-05-09T21:21:57.963Z,51.41
2019-05-09T21:24:27.743Z,52.14
2019-05-09T21:26:57.892Z,52.01
2019-05-09T21:29:27.676Z,52.73
2019-05-09T21:31:57.461Z,53.01
2019-05-09T21:34:27.262Z,53.42
2019-05-09T21:36:56.872Z,53.82
2019-05-09T21:39:26.468Z,54.62
2019-05-09T21:41:56.082Z,55.22
2019-05-09T21:44:25.672Z,54.95
2019-05-09T21:46:55.282Z,54.92
2019-05-09T21:49:24.855Z,54.87
2019-05-09T21:51:54.445Z,54.99
2019-05-09T21:54:24.039Z,54.48
2019-05-09T21:56:53.627Z,54.86
2019-05-09T21:59:23.228Z,55.05
2019-05-09T22:01:53.094Z,54.98
2019-05-09T22:04:22.861Z,55.26
2019-05-09T22:06:52.489Z,55.42
2019-05-09T22:09:22.115Z,55.85
2019-05-09T22:11:51.715Z,55.81
2019-05-09T22:14:21.303Z,55.74
2019-05-09T22:16:50.915Z,55.82
2019-05-09T22:19:20.525Z,55.82
2019-05-09T22:21:50.131Z,56.18
2019-05-09T22:24:20.483Z,56.35
2019-05-09T22:26:50.079Z,56.69
2019-05-09T22:29:19.686Z,57.10
2019-05-09T22:31:49.303Z,57.35
2019-05-09T22:34:18.910Z,57.52
2019-05-09T22:36:48.584Z,57.44
2019-05-09T22:39:18.177Z,57.25
2019-05-09T22:41:47.804Z,57.39
2019-05-09T22:44:17.400Z,57.60
2019-05-09T22:46:46.986Z,57.92
2019-05-09T22:49:16.588Z,58.14
2019-05-09T22:51:46.241Z,58.18
2019-05-09T22:54:15.856Z,58.63
2019-05-09T22:56:45.456Z,59.07
2019-05-09T22:59:15.066Z,59.37
2019-05-09T23:01:44.680Z,59.19
2019-05-09T23:04:14.292Z,59.32
2019-05-09T23:06:43.898Z,59.46
2019-05-09T23:09:13.499Z,59.52
2019-05-09T23:11:45.803Z,59.55
2019-05-09T23:14:15.425Z,59.45
2019-05-09T23:16:45.064Z,59.53
2019-05-09T23:19:14.686Z,59.42
2019-05-09T23:21:44.294Z,59.28
2019-05-09T23:24:27.996Z,58.99
2019-05-09T23:26:49.416Z,59.03
2019-05-09T23:29:19.026Z,59.28
2019-05-09T23:31:50.272Z,59.46
2019-05-09T23:34:20.694Z,59.43
2019-05-09T23:36:50.386Z,59.57
2019-05-09T23:39:27.236Z,59.62
2019-05-09T23:41:57.033Z,59.73
2019-05-09T23:44:26.643Z,59.92
2019-05-09T23:46:56.241Z,59.96
2019-05-09T23:49:25.847Z,60.15
2019-05-09T23:51:55.434Z,60.28
2019-05-09T23:54:46.630Z,60.36
2019-05-09T23:57:31.486Z,60.59
